Latest Weather Observations for Mornington Island Airport

IDQ60801

Issued at 1:32 pm EST Friday 26 May 2017 (issued every 30 minutes, with the page automatically refreshed every 10 minutes)

About weather observations | Map of weather stations | Latest weather observations for QLD | Other Formats
Station Details ID: 029182 Name: MORNINGTON ISLAND AIRPORT Lat: -16.66 Lon: 139.17 Height: 9.52 m
Data from the previous 72 hours. | See also: Recent months at Mornington Island Airport
Date/Time
EST
Temp
°C
App
Temp
°C
Dew
Point
°C
Rel
Hum
%
Delta-T
°C
Wind Press
QNH
hPa
Press
MSL
hPa
Rain since
9am
mm
Dir  Spd
km/h
Gust
km/h
Spd
kts
Gust
kts
26/01:30pm 28.4 26.9 16.7 49 7.3 SE 20 28 11 15 1014.5 1014.4 0.0
26/01:00pm 29.1 28.3 17.0 48 7.6 SE 17 26 9 14 1014.9 1014.8 0.0
26/12:30pm 28.2 26.4 16.1 47 7.5 SE 20 28 11 15 1015.3 1015.2 0.0
26/12:00pm 28.4 26.0 15.3 45 8.0 SE 22 30 12 16 1015.9 1015.8 0.0
26/11:30am 28.8 27.3 16.4 47 7.7 ESE 19 26 10 14 1016.0 1015.9 0.0
26/11:00am 28.7 26.5 14.9 43 8.4 ESE 20 28 11 15 1016.1 1016.0 0.0
26/10:30am 28.7 25.1 14.1 40 8.8 E 26 35 14 19 1016.2 1016.1 0.0
26/10:00am 28.2 25.1 14.4 42 8.3 E 24 33 13 18 1016.2 1016.1 0.0
26/09:30am 27.4 26.4 15.7 48 7.2 ESE 15 22 8 12 1016.1 1016.0 0.0
26/09:00am 26.1 26.0 16.1 54 6.1 E 11 15 6 8 1016.0 1015.9 0.0
26/08:30am 24.3 24.3 16.3 61 4.9 E 11 15 6 8 1015.7 1015.6 0.0
26/08:00am 22.6 22.6 16.2 67 3.9 E 11 13 6 7 1015.4 1015.3 0.0
26/07:30am 21.0 20.5 16.0 73 3.0 E 13 15 7 8 1015.1 1015.0 0.0
26/07:00am 20.2 19.8 16.2 78 2.4 E 13 15 7 8 1014.7 1014.6 0.0
26/06:30am 20.5 21.1 16.7 79 2.3 ESE 9 13 5 7 1014.6 1014.5 0.0
26/06:00am 21.5 21.4 16.9 75 2.8 ESE 13 15 7 8 1014.2 1014.1 0.0
26/05:30am 22.4 22.3 17.8 75 2.9 E 15 20 8 11 1013.8 1013.7 0.0
26/05:00am 23.4 24.7 20.2 82 2.1 ESE 13 17 7 9 1013.6 1013.5 0.0
26/04:30am 22.4 24.4 20.7 90 1.1 SE 11 15 6 8 1013.7 1013.6 0.0
26/04:00am 19.8 21.1 18.5 92 0.8 SSE 9 9 5 5 1013.6 1013.5 0.0
26/03:30am 20.0 21.4 17.8 87 1.4 SSE 7 9 4 5 1013.6 1013.5 0.0
26/03:00am 21.2 23.0 19.5 90 1.1 S 9 11 5 6 1013.7 1013.6 0.0
26/02:30am 20.7 22.4 19.4 92 0.8 SSE 9 11 5 6 1013.9 1013.8 0.0
26/02:00am 20.2 21.5 18.5 90 1.1 SSE 9 11 5 6 1014.3 1014.2 0.0
26/01:30am 20.1 21.7 18.2 89 1.2 S 7 9 4 5 1014.5 1014.4 0.0
26/01:00am 20.8 22.5 18.6 87 1.4 SSE 7 9 4 5 1014.6 1014.5 0.0
26/12:30am 20.9 22.6 19.4 91 1.0 SSE 9 11 5 6 1014.7 1014.6 0.0
26/12:00am 20.6 22.5 18.9 90 1.1 S 7 11 4 6 1014.8 1014.7 0.0
 
Date/Time
EST
Temp
°C
App
Temp
°C
Dew
Point
°C
Rel
Hum
%
Delta-T
°C
Wind Press
QNH
hPa
Press
MSL
hPa
Rain since
9am
mm
Dir  Spd
km/h
Gust
km/h
Spd
kts
Gust
kts
25/11:30pm 20.8 22.7 18.9 89 1.2 SSE 7 11 4 6 1015.2 1015.1 0.0
25/11:00pm 20.1 21.3 18.2 89 1.2 S 9 11 5 6 1015.4 1015.3 0.0
25/10:30pm 19.3 19.9 16.9 86 1.5 SSE 9 11 5 6 1015.4 1015.3 0.0
25/10:00pm 19.6 22.0 17.0 85 1.6 CALM 0 0 0 0 1015.4 1015.3 0.0
25/09:30pm 19.8 22.1 16.8 83 1.8 CALM 0 0 0 0 1015.5 1015.4 0.0
25/09:00pm 20.3 22.6 16.7 80 2.2 CALM 0 0 0 0 1015.4 1015.3 0.0
25/08:30pm 20.5 22.7 16.5 78 2.4 CALM 0 0 0 0 1015.2 1015.1 0.0
25/08:00pm 20.7 22.7 16.1 75 2.8 CALM 0 0 0 0 1014.8 1014.7 0.0
25/07:30pm 21.7 23.8 16.2 71 3.3 CALM 0 0 0 0 1014.5 1014.4 0.0
25/07:00pm 23.1 24.2 16.6 67 4.0 SE 6 7 3 4 1014.4 1014.3 0.0
25/06:30pm 24.8 25.5 16.2 58 5.3 SE 7 9 4 5 1014.1 1014.0 0.0
25/06:00pm 26.0 25.6 15.1 51 6.6 SE 11 17 6 9 1013.8 1013.7 0.0
25/05:30pm 26.9 26.2 15.3 49 7.0 SE 13 22 7 12 1013.7 1013.6 0.0
25/05:00pm 27.2 25.8 15.6 49 7.1 SE 17 28 9 15 1013.5 1013.4 0.0
25/04:30pm 27.0 25.4 16.6 53 6.4 SE 20 32 11 17 1013.5 1013.4 0.0
25/04:00pm 27.5 26.3 17.4 54 6.3 SE 20 28 11 15 1013.4 1013.3 0.0
25/03:30pm 27.3 25.5 16.9 53 6.5 SE 22 33 12 18 1013.6 1013.5 0.0
25/03:00pm 28.0 26.7 17.2 52 6.8 SE 20 32 11 17 1013.7 1013.6 0.0
25/02:30pm 28.5 26.7 16.1 47 7.7 SE 20 35 11 19 1014.2 1014.1 0.0
25/02:00pm 29.0 26.2 14.4 41 8.8 ESE 22 32 12 17 1014.5 1014.4 0.0
25/01:30pm 28.9 25.9 15.8 45 8.1 ESE 26 39 14 21 1014.9 1014.8 0.0
25/01:00pm 28.3 25.3 15.9 47 7.6 ESE 26 39 14 21 1015.5 1015.4 0.0
25/12:30pm 29.1 26.6 17.0 48 7.6 ESE 26 39 14 21 1015.9 1015.8 0.0
25/12:00pm 29.3 26.7 16.8 47 7.8 ESE 26 35 14 19 1016.0 1015.9 0.0
25/11:30am 29.2 25.5 16.0 44 8.2 E 30 37 16 20 1016.2 1016.1 0.0
25/11:00am 28.5 25.5 17.7 52 6.8 ESE 30 41 16 22 1016.4 1016.3 0.0
25/10:30am 28.5 25.7 18.3 54 6.5 ESE 30 43 16 23 1016.4 1016.3 0.0
25/10:00am 28.6 25.4 19.5 58 5.9 E 35 46 19 25 1016.2 1016.1 0.0
25/09:30am 28.6 26.5 20.6 62 5.3 E 32 41 17 22 1016.1 1016.0 0.0
25/09:00am 27.9 27.3 21.2 67 4.5 ENE 26 37 14 20 1015.8 1015.7 0.0
25/08:30am 26.9 28.0 22.3 76 3.1 E 20 26 11 14 1015.4 1015.3 0.0
25/08:00am 26.1 27.0 21.5 76 3.1 ESE 19 26 10 14 1015.1 1015.0 0.0
25/07:30am 25.5 26.6 21.2 77 2.8 ESE 17 24 9 13 1014.8 1014.7 0.0
25/07:00am 25.2 26.3 21.3 79 2.6 ESE 17 20 9 11 1014.4 1014.3 0.0
25/06:30am 25.6 26.1 21.1 76 3.0 SE 20 28 11 15 1014.0 1013.9 0.0
25/06:00am 25.3 26.5 21.4 79 2.6 SE 17 24 9 13 1013.9 1013.8 0.0
25/05:30am 25.4 26.3 20.9 76 3.0 SE 17 24 9 13 1013.8 1013.7 0.0
25/05:00am 25.0 27.1 21.7 82 2.2 SSE 13 20 7 11 1013.7 1013.6 0.0
25/04:30am 23.7 26.2 21.0 85 1.8 SSE 9 13 5 7 1013.4 1013.3 0.0
25/04:00am 23.8 26.3 21.1 85 1.8 SSE 9 11 5 6 1013.4 1013.3 0.0
25/03:30am 24.3 27.0 21.4 84 1.9 SSE 9 13 5 7 1013.5 1013.4 0.0
25/03:00am 24.6 26.8 21.1 81 2.3 SSE 11 15 6 8 1013.6 1013.5 0.0
25/02:30am 24.8 27.7 21.7 83 2.1 SSE 9 15 5 8 1013.9 1013.8 0.0
25/02:00am 24.5 27.5 21.2 82 2.2 SSE 7 13 4 7 1014.1 1014.0 0.0
25/01:30am 24.1 27.1 21.2 84 1.9 SSE 7 13 4 7 1014.2 1014.1 0.0
25/01:00am 24.0 27.0 21.9 88 1.4 SSE 9 11 5 6 1014.4 1014.3 0.0
25/12:30am 23.9 27.3 22.0 89 1.3 SSE 7 9 4 5 1014.6 1014.5 0.0
25/12:00am 23.5 26.6 22.1 92 0.9 SSE 9 11 5 6 1014.8 1014.7 0.0
 
Date/Time
EST
Temp
°C
App
Temp
°C
Dew
Point
°C
Rel
Hum
%
Delta-T
°C
Wind Press
QNH
hPa
Press
MSL
hPa
Rain since
9am
mm
Dir  Spd
km/h
Gust
km/h
Spd
kts
Gust
kts
24/11:30pm 23.4 27.1 22.6 95 0.5 SSE 7 9 4 5 1015.0 1014.9 0.0
24/11:00pm 23.3 27.0 22.3 94 0.7 S 6 7 3 4 1015.1 1015.0 0.0
24/10:30pm 23.2 26.7 21.8 92 0.9 S 6 7 3 4 1015.1 1015.0 0.0
24/10:00pm 23.1 26.4 21.4 90 1.1 S 6 7 3 4 1015.1 1015.0 0.0
24/09:30pm 23.4 26.8 22.0 92 0.9 S 7 7 4 4 1015.0 1014.9 0.0
24/09:00pm 23.3 26.4 21.0 87 1.5 ESE 6 7 3 4 1014.9 1014.8 0.0
24/08:30pm 23.5 26.6 21.0 86 1.6 ESE 6 7 3 4 1014.7 1014.6 0.0
24/08:00pm 23.8 26.9 21.1 85 1.8 SE 6 9 3 5 1014.3 1014.2 0.0
24/07:30pm 24.2 27.3 21.1 83 2.0 SE 6 7 3 4 1014.2 1014.1 0.0
24/07:00pm 25.0 28.0 20.9 78 2.7 SSE 6 7 3 4 1014.0 1013.9 0.0
24/06:30pm 26.0 28.8 20.8 73 3.4 SSE 7 9 4 5 1013.8 1013.7 0.0
24/06:00pm 27.0 28.7 19.4 63 4.9 SSE 9 11 5 6 1013.6 1013.5 0.0
24/05:30pm 27.9 29.4 19.7 61 5.3 SE 11 17 6 9 1013.5 1013.4 0.0
24/05:00pm 28.1 28.4 19.6 60 5.5 SE 17 20 9 11 1013.5 1013.4 0.0
24/04:30pm 27.9 28.9 21.0 66 4.6 SE 17 24 9 13 1013.5 1013.4 0.0
24/04:00pm 28.2 29.9 22.4 71 3.9 SE 17 26 9 14 1013.5 1013.4 0.0
24/03:30pm 28.0 29.5 22.0 70 4.0 SSE 17 26 9 14 1013.6 1013.5 0.0
24/03:00pm 28.6 29.7 21.9 67 4.5 SSE 19 30 10 16 1013.5 1013.4 0.0
24/02:30pm 28.8 29.7 21.6 65 4.8 SE 19 26 10 14 1013.6 1013.5 0.0
24/02:00pm 29.1 30.0 20.8 61 5.5 SE 17 24 9 13 1013.9 1013.8 0.0
24/01:30pm 29.1 29.9 21.8 64 4.9 ESE 20 33 11 18 1014.5 1014.4 0.0
24/01:00pm 30.3 31.5 22.2 62 5.5 ESE 19 26 10 14 1014.8 1014.7 0.0
24/12:30pm 30.2 30.8 21.3 59 6.0 E 20 28 11 15 1015.2 1015.1 0.0
24/12:00pm 30.9 31.7 21.7 58 6.2 E 20 28 11 15 1015.4 1015.3 0.0
24/11:30am 29.6 29.6 20.2 57 6.2 ENE 20 30 11 16 1015.7 1015.6 0.0
24/11:00am 29.3 30.5 20.7 59 5.7 NE 15 20 8 11 1015.9 1015.8 0.0
24/10:30am 29.3 29.9 21.3 62 5.3 ENE 20 33 11 18 1016.0 1015.9 0.0
24/10:00am 29.0 29.7 22.2 66 4.6 ENE 22 32 12 17 1015.9 1015.8 0.0
24/09:30am 28.3 29.8 23.0 73 3.6 E 20 30 11 16 1015.8 1015.7 0.0
24/09:00am 27.3 28.7 22.9 77 3.0 ESE 20 33 11 18 1015.5 1015.4 0.0
24/08:30am 26.6 28.3 23.1 81 2.4 ESE 19 24 10 13 1015.0 1014.9 0.0
24/08:00am 25.6 27.6 22.9 85 1.8 ESE 17 24 9 13 1014.6 1014.5 0.0
24/07:30am 24.5 26.6 22.4 88 1.4 ESE 15 19 8 10 1014.3 1014.2 0.0
24/07:00am 24.3 26.9 22.0 87 1.5 SE 11 15 6 8 1014.0 1013.9 0.0
24/06:30am 24.2 26.4 21.1 83 2.0 SE 11 17 6 9 1013.6 1013.5 0.0
24/06:00am 22.5 24.8 19.9 85 1.7 SSE 7 9 4 5 1013.4 1013.3 0.0
24/05:30am 22.9 25.0 20.1 84 1.8 SSE 9 11 5 6 1013.2 1013.1 0.0
24/05:00am 22.6 25.1 20.3 87 1.5 SSE 7 11 4 6 1013.1 1013.0 0.0
24/04:30am 23.1 26.1 20.8 87 1.5 SSE 6 7 3 4 1013.0 1012.9 0.0
24/04:00am 23.1 26.2 21.0 88 1.4 SSE 6 7 3 4 1012.8 1012.7 0.0
24/03:30am 22.7 25.5 20.8 89 1.2 S 7 11 4 6 1012.9 1012.8 0.0
24/03:00am 22.8 25.8 20.9 89 1.2 S 6 7 3 4 1013.0 1012.9 0.0
24/02:30am 23.3 26.7 21.7 91 1.1 S 6 7 3 4 1013.2 1013.1 0.0
24/02:00am 23.4 27.0 22.0 92 0.9 SSW 6 7 3 4 1013.4 1013.3 0.0
24/01:30am 23.1 26.3 21.2 89 1.2 SSW 6 7 3 4 1013.6 1013.5 0.0
24/01:00am 23.2 25.9 20.7 86 1.6 SSW 7 9 4 5 1013.8 1013.7 0.0
24/12:30am 21.9 24.3 20.0 89 1.2 S 7 7 4 4 1014.1 1014.0 0.0
24/12:00am 21.9 24.8 20.7 93 0.8 E 6 7 3 4 1014.3 1014.2 0.0
 
Date/Time
EST
Temp
°C
App
Temp
°C
Dew
Point
°C
Rel
Hum
%
Delta-T
°C
Wind Press
QNH
hPa
Press
MSL
hPa
Rain since
9am
mm
Dir  Spd
km/h
Gust
km/h
Spd
kts
Gust
kts
23/11:30pm 22.0 25.1 21.0 94 0.7 NE 6 7 3 4 1014.4 1014.3 0.0
23/11:00pm 22.2 25.4 21.2 94 0.7 NE 6 7 3 4 1014.5 1014.4 0.0
23/10:30pm 22.4 25.6 21.2 93 0.8 NE 6 7 3 4 1014.5 1014.4 0.0
23/10:00pm 22.9 26.3 21.7 93 0.8 NE 6 7 3 4 1014.6 1014.5 0.0
23/09:30pm 23.1 26.7 22.1 94 0.7 NE 6 6 3 3 1014.5 1014.4 0.0
23/09:00pm 23.2 26.3 22.2 94 0.7 NE 9 11 5 6 1014.5 1014.4 0.0
23/08:30pm 23.4 26.8 22.0 92 0.9 ENE 7 9 4 5 1014.2 1014.1 0.0
23/08:00pm 23.7 26.7 22.0 90 1.1 ENE 9 9 5 5 1014.0 1013.9 0.0
23/07:30pm 24.2 27.2 21.9 87 1.5 ENE 9 9 5 5 1013.6 1013.5 0.0
23/07:00pm 24.8 27.2 21.5 82 2.2 ENE 11 11 6 6 1013.4 1013.3 0.0
23/06:30pm 25.9 28.2 21.3 76 3.0 E 11 13 6 7 1013.2 1013.1 0.0
23/06:00pm 26.7 28.3 20.8 70 3.9 ESE 13 15 7 8 1013.0 1012.9 0.0
23/05:30pm 27.0 29.3 21.3 71 3.8 SE 11 19 6 10 1012.9 1012.8 0.0
23/05:00pm 27.4 29.5 21.7 71 3.8 SSE 13 20 7 11 1012.6 1012.5 0.0
23/04:30pm 27.2 28.5 21.7 72 3.7 SSE 17 24 9 13 1012.6 1012.5 0.0
23/04:00pm 27.4 28.8 21.9 72 3.7 SSE 17 28 9 15 1012.6 1012.5 0.0
23/03:30pm 27.9 28.9 22.2 71 3.8 SSE 20 30 11 16 1012.6 1012.5 0.0
23/03:00pm 29.1 31.0 22.1 66 4.7 SSE 15 22 8 12 1012.5 1012.4 0.0
23/02:30pm 30.2 32.1 22.1 62 5.5 SSE 15 22 8 12 1012.7 1012.6 0.0
23/02:00pm 30.6 30.4 17.7 46 8.2 SE 15 24 8 13 1012.9 1012.8 0.0

Other Formats:

Comma delimited format used in spreadsheet applications
http://www.bom.gov.au/fwo/IDQ60801/IDQ60801.94254.axf

JavaScript Object Notation format (JSON) in row-major order
http://www.bom.gov.au/fwo/IDQ60801/IDQ60801.94254.json